sensor_id;sensor_type;location;lat;lon;timestamp;pressure;altitude;pressure_sealevel;temperature;humidity
38939;BME280;24211;49.980;19.776;2022-11-20T00:01:28;99155.94;;;-2.09;100.00
38939;BME280;24211;49.980;19.776;2022-11-20T00:03:57;99150.84;;;-2.10;100.00
38939;BME280;24211;49.980;19.776;2022-11-20T00:06:26;99147.94;;;-2.07;100.00
38939;BME280;24211;49.980;19.776;2022-11-20T00:08:57;99162.97;;;-2.09;100.00
38939;BME280;24211;49.980;19.776;2022-11-20T00:11:26;99143.97;;;-2.11;100.00
38939;BME280;24211;49.980;19.776;2022-11-20T00:13:57;99143.56;;;-2.16;100.00
38939;BME280;24211;49.980;19.776;2022-11-20T00:16:27;99150.75;;;-2.18;100.00
38939;BME280;24211;49.980;19.776;2022-11-20T00:18:55;99148.13;;;-2.18;100.00
38939;BME280;24211;49.980;19.776;2022-11-20T00:21:25;99145.53;;;-2.18;100.00
38939;BME280;24211;49.980;19.776;2022-11-20T00:23:55;99136.34;;;-2.22;100.00
38939;BME280;24211;49.980;19.776;2022-11-20T00:26:25;99140.91;;;-2.24;100.00
38939;BME280;24211;49.980;19.776;2022-11-20T00:28:58;99140.22;;;-2.26;100.00
38939;BME280;24211;49.980;19.776;2022-11-20T00:31:26;99145.47;;;-2.26;100.00
38939;BME280;24211;49.980;19.776;2022-11-20T00:33:53;99135.28;;;-2.29;100.00
38939;BME280;24211;49.980;19.776;2022-11-20T00:36:27;99145.75;;;-2.29;100.00
38939;BME280;24211;49.980;19.776;2022-11-20T00:38:57;99148.81;;;-2.34;100.00
38939;BME280;24211;49.980;19.776;2022-11-20T00:41:28;99153.50;;;-2.37;100.00
38939;BME280;24211;49.980;19.776;2022-11-20T00:43:56;99144.97;;;-2.39;100.00
38939;BME280;24211;49.980;19.776;2022-11-20T00:46:27;99147.75;;;-2.41;100.00
38939;BME280;24211;49.980;19.776;2022-11-20T00:48:55;99145.28;;;-2.42;100.00
38939;BME280;24211;49.980;19.776;2022-11-20T00:51:25;99131.22;;;-2.41;100.00
38939;BME280;24211;49.980;19.776;2022-11-20T00:53:57;99131.50;;;-2.44;100.00
38939;BME280;24211;49.980;19.776;2022-11-20T00:56:24;99119.72;;;-2.48;100.00
38939;BME280;24211;49.980;19.776;2022-11-20T00:58:51;99122.91;;;-2.54;100.00
38939;BME280;24211;49.980;19.776;2022-11-20T01:01:22;99112.88;;;-2.59;100.00
38939;BME280;24211;49.980;19.776;2022-11-20T01:03:55;99119.22;;;-2.61;100.00
38939;BME280;24211;49.980;19.776;2022-11-20T01:06:35;99119.59;;;-2.56;100.00
38939;BME280;24211;49.980;19.776;2022-11-20T01:09:10;99129.09;;;-2.55;100.00
38939;BME280;24211;49.980;19.776;2022-11-20T01:11:41;99127.16;;;-2.53;100.00
38939;BME280;24211;49.980;19.776;2022-11-20T01:14:15;99124.16;;;-2.58;100.00
38939;BME280;24211;49.980;19.776;2022-11-20T01:16:48;99117.28;;;-2.59;100.00
38939;BME280;24211;49.980;19.776;2022-11-20T01:19:20;99112.06;;;-2.59;100.00
38939;BME280;24211;49.980;19.776;2022-11-20T01:21:51;99110.41;;;-2.60;100.00
38939;BME280;24211;49.980;19.776;2022-11-20T01:24:21;99114.00;;;-2.61;100.00
38939;BME280;24211;49.980;19.776;2022-11-20T01:26:50;99113.16;;;-2.62;100.00
38939;BME280;24211;49.980;19.776;2022-11-20T01:29:24;99112.06;;;-2.59;100.00
38939;BME280;24211;49.980;19.776;2022-11-20T01:31:52;99117.88;;;-2.66;100.00
38939;BME280;24211;49.980;19.776;2022-11-20T01:34:21;99105.75;;;-2.67;100.00
38939;BME280;24211;49.980;19.776;2022-11-20T01:36:50;99098.47;;;-2.73;100.00
38939;BME280;24211;49.980;19.776;2022-11-20T01:39:24;99091.75;;;-2.75;100.00
38939;BME280;24211;49.980;19.776;2022-11-20T01:41:53;99099.75;;;-2.77;100.00
38939;BME280;24211;49.980;19.776;2022-11-20T01:44:59;99091.25;;;-2.79;100.00
38939;BME280;24211;49.980;19.776;2022-11-20T01:47:43;99089.56;;;-2.80;100.00
38939;BME280;24211;49.980;19.776;2022-11-20T01:50:18;99091.81;;;-2.85;100.00
38939;BME280;24211;49.980;19.776;2022-11-20T01:52:53;99086.91;;;-2.88;100.00
38939;BME280;24211;49.980;19.776;2022-11-20T01:55:29;99090.19;;;-2.86;100.00
38939;BME280;24211;49.980;19.776;2022-11-20T01:57:58;99093.75;;;-2.87;100.00
38939;BME280;24211;49.980;19.776;2022-11-20T02:00:29;99100.25;;;-2.91;100.00
38939;BME280;24211;49.980;19.776;2022-11-20T02:03:01;99104.81;;;-2.93;100.00
38939;BME280;24211;49.980;19.776;2022-11-20T02:05:55;99103.16;;;-2.94;100.00
38939;BME280;24211;49.980;19.776;2022-11-20T02:08:24;99103.97;;;-2.93;100.00
38939;BME280;24211;49.980;19.776;2022-11-20T02:10:52;99111.81;;;-2.93;100.00
38939;BME280;24211;49.980;19.776;2022-11-20T02:13:19;99113.59;;;-2.94;100.00
38939;BME280;24211;49.980;19.776;2022-11-20T02:16:23;99114.31;;;-3.01;100.00
38939;BME280;24211;49.980;19.776;2022-11-20T02:18:53;99115.59;;;-3.05;100.00
38939;BME280;24211;49.980;19.776;2022-11-20T02:24:30;99116.69;;;-3.08;100.00
38939;BME280;24211;49.980;19.776;2022-11-20T02:27:12;99123.88;;;-3.10;100.00
38939;BME280;24211;49.980;19.776;2022-11-20T02:30:01;99120.84;;;-3.15;100.00
38939;BME280;24211;49.980;19.776;2022-11-20T02:32:33;99121.81;;;-3.16;100.00
38939;BME280;24211;49.980;19.776;2022-11-20T02:37:50;99122.25;;;-3.20;100.00
38939;BME280;24211;49.980;19.776;2022-11-20T02:40:17;99124.19;;;-3.22;100.00
38939;BME280;24211;49.980;19.776;2022-11-20T02:42:45;99131.19;;;-3.23;100.00
38939;BME280;24211;49.980;19.776;2022-11-20T02:45:12;99122.00;;;-3.27;100.00
38939;BME280;24211;49.980;19.776;2022-11-20T02:47:39;99119.66;;;-3.30;100.00
38939;BME280;24211;49.980;19.776;2022-11-20T02:50:06;99113.44;;;-3.29;100.00
38939;BME280;24211;49.980;19.776;2022-11-20T02:52:34;99114.56;;;-3.32;100.00
38939;BME280;24211;49.980;19.776;2022-11-20T02:55:01;99117.03;;;-3.30;100.00
38939;BME280;24211;49.980;19.776;2022-11-20T02:57:28;99107.69;;;-3.33;100.00
38939;BME280;24211;49.980;19.776;2022-11-20T02:59:55;99112.38;;;-3.36;100.00
38939;BME280;24211;49.980;19.776;2022-11-20T03:02:23;99107.97;;;-3.36;100.00
38939;BME280;24211;49.980;19.776;2022-11-20T03:04:50;99107.81;;;-3.34;100.00
38939;BME280;24211;49.980;19.776;2022-11-20T03:07:17;99108.66;;;-3.34;100.00
38939;BME280;24211;49.980;19.776;2022-11-20T03:09:44;99109.47;;;-3.33;100.00
38939;BME280;24211;49.980;19.776;2022-11-20T03:12:11;99108.94;;;-3.37;100.00
38939;BME280;24211;49.980;19.776;2022-11-20T03:14:38;99109.25;;;-3.40;100.00
38939;BME280;24211;49.980;19.776;2022-11-20T03:17:06;99105.53;;;-3.37;100.00
38939;BME280;24211;49.980;19.776;2022-11-20T03:19:33;99100.56;;;-3.40;100.00
38939;BME280;24211;49.980;19.776;2022-11-20T03:22:01;99101.00;;;-3.45;100.00
38939;BME280;24211;49.980;19.776;2022-11-20T03:24:28;99099.22;;;-3.44;100.00
38939;BME280;24211;49.980;19.776;2022-11-20T03:26:55;99102.50;;;-3.42;100.00
38939;BME280;24211;49.980;19.776;2022-11-20T03:29:22;99093.69;;;-3.41;100.00
38939;BME280;24211;49.980;19.776;2022-11-20T03:31:49;99097.28;;;-3.42;100.00
38939;BME280;24211;49.980;19.776;2022-11-20T03:34:16;99096.44;;;-3.43;100.00
38939;BME280;24211;49.980;19.776;2022-11-20T03:36:44;99089.28;;;-3.41;100.00
38939;BME280;24211;49.980;19.776;2022-11-20T03:39:11;99080.22;;;-3.46;100.00
38939;BME280;24211;49.980;19.776;2022-11-20T03:41:41;99089.03;;;-3.47;100.00
38939;BME280;24211;49.980;19.776;2022-11-20T03:44:11;99088.06;;;-3.46;100.00
38939;BME280;24211;49.980;19.776;2022-11-20T03:46:38;99082.16;;;-3.48;100.00
38939;BME280;24211;49.980;19.776;2022-11-20T03:49:06;99087.25;;;-3.47;100.00
38939;BME280;24211;49.980;19.776;2022-11-20T03:51:35;99094.25;;;-3.47;100.00
38939;BME280;24211;49.980;19.776;2022-11-20T03:54:08;99089.31;;;-3.50;100.00
38939;BME280;24211;49.980;19.776;2022-11-20T03:56:38;99092.59;;;-3.48;100.00
38939;BME280;24211;49.980;19.776;2022-11-20T03:59:05;99094.00;;;-3.44;100.00
38939;BME280;24211;49.980;19.776;2022-11-20T04:01:35;99089.03;;;-3.47;100.00
38939;BME280;24211;49.980;19.776;2022-11-20T04:04:05;99083.81;;;-3.47;100.00
38939;BME280;24211;49.980;19.776;2022-11-20T04:06:37;99097.56;;;-3.45;100.00
38939;BME280;24211;49.980;19.776;2022-11-20T04:09:05;99098.50;;;-3.46;100.00
38939;BME280;24211;49.980;19.776;2022-11-20T04:11:36;99094.25;;;-3.47;100.00
38939;BME280;24211;49.980;19.776;2022-11-20T04:14:06;99094.00;;;-3.44;100.00
38939;BME280;24211;49.980;19.776;2022-11-20T04:16:38;99099.22;;;-3.44;100.00
38939;BME280;24211;49.980;19.776;2022-11-20T04:19:11;99099.88;;;-3.42;100.00
38939;BME280;24211;49.980;19.776;2022-11-20T04:21:38;99093.16;;;-3.45;100.00
38939;BME280;24211;49.980;19.776;2022-11-20T04:24:06;99086.44;;;-3.47;100.00
38939;BME280;24211;49.980;19.776;2022-11-20T04:26:34;99089.16;;;-3.49;100.00
38939;BME280;24211;49.980;19.776;2022-11-20T04:29:02;99087.38;;;-3.48;100.00
38939;BME280;24211;49.980;19.776;2022-11-20T04:31:33;99085.84;;;-3.41;100.00
38939;BME280;24211;49.980;19.776;2022-11-20T04:34:06;99081.34;;;-3.39;100.00
38939;BME280;24211;49.980;19.776;2022-11-20T04:36:34;99083.94;;;-3.39;100.00
38939;BME280;24211;49.980;19.776;2022-11-20T04:39:06;99079.66;;;-3.40;100.00
38939;BME280;24211;49.980;19.776;2022-11-20T04:41:35;99074.72;;;-3.43;100.00
38939;BME280;24211;49.980;19.776;2022-11-20T04:44:05;99082.97;;;-3.38;100.00
38939;BME280;24211;49.980;19.776;2022-11-20T04:46:42;99070.06;;;-3.40;100.00
38939;BME280;24211;49.980;19.776;2022-11-20T04:49:11;99070.88;;;-3.39;100.00
38939;BME280;24211;49.980;19.776;2022-11-20T04:51:38;99065.66;;;-3.39;100.00
38939;BME280;24211;49.980;19.776;2022-11-20T04:54:05;99063.72;;;-3.37;100.00
38939;BME280;24211;49.980;19.776;2022-11-20T04:56:32;99068.63;;;-3.34;100.00
38939;BME280;24211;49.980;19.776;2022-11-20T04:59:01;99067.97;;;-3.36;100.00
38939;BME280;24211;49.980;19.776;2022-11-20T05:01:28;99070.28;;;-3.33;100.00
38939;BME280;24211;49.980;19.776;2022-11-20T05:03:56;99066.19;;;-3.36;100.00
38939;BME280;24211;49.980;19.776;2022-11-20T05:06:23;99065.91;;;-3.33;100.00
38939;BME280;24211;49.980;19.776;2022-11-20T05:08:50;99068.63;;;-3.34;100.00
38939;BME280;24211;49.980;19.776;2022-11-20T05:11:20;99067.97;;;-3.36;100.00
38939;BME280;24211;49.980;19.776;2022-11-20T05:13:49;99070.13;;;-3.32;100.00
38939;BME280;24211;49.980;19.776;2022-11-20T05:16:22;99061.50;;;-3.32;100.00
38939;BME280;24211;49.980;19.776;2022-11-20T05:18:52;99068.63;;;-3.34;100.00
38939;BME280;24211;49.980;19.776;2022-11-20T05:21:21;99057.81;;;-3.39;100.00
38939;BME280;24211;49.980;19.776;2022-11-20T05:23:49;99061.38;;;-3.40;100.00
38939;BME280;24211;49.980;19.776;2022-11-20T05:26:20;99051.75;;;-3.40;100.00
38939;BME280;24211;49.980;19.776;2022-11-20T05:28:49;99054.38;;;-3.40;100.00
38939;BME280;24211;49.980;19.776;2022-11-20T05:31:23;99050.78;;;-3.39;100.00
38939;BME280;24211;49.980;19.776;2022-11-20T05:33:56;99056.31;;;-3.42;100.00
38939;BME280;24211;49.980;19.776;2022-11-20T05:36:24;99045.31;;;-3.45;100.00
38939;BME280;24211;49.980;19.776;2022-11-20T05:38:51;99045.59;;;-3.48;100.00
38939;BME280;24211;49.980;19.776;2022-11-20T05:41:24;99043.66;;;-3.46;100.00
38939;BME280;24211;49.980;19.776;2022-11-20T05:43:52;99038.16;;;-3.43;100.00
38939;BME280;24211;49.980;19.776;2022-11-20T05:46:20;99035.53;;;-3.43;100.00
38939;BME280;24211;49.980;19.776;2022-11-20T05:48:55;99046.94;;;-3.35;100.00
38939;BME280;24211;49.980;19.776;2022-11-20T05:51:22;99043.63;;;-3.37;100.00
38939;BME280;24211;49.980;19.776;2022-11-20T05:53:50;99037.59;;;-3.37;100.00
38939;BME280;24211;49.980;19.776;2022-11-20T05:56:21;99035.25;;;-3.40;100.00
38939;BME280;24211;49.980;19.776;2022-11-20T05:58:49;99037.19;;;-3.42;100.00
38939;BME280;24211;49.980;19.776;2022-11-20T06:01:25;99054.22;;;-3.38;100.00
38939;BME280;24211;49.980;19.776;2022-11-20T06:03:53;99052.88;;;-3.42;100.00
38939;BME280;24211;49.980;19.776;2022-11-20T06:06:22;99052.88;;;-3.42;100.00
38939;BME280;24211;49.980;19.776;2022-11-20T06:08:49;99051.88;;;-3.41;100.00
38939;BME280;24211;49.980;19.776;2022-11-20T06:11:17;99051.59;;;-3.38;100.00
38939;BME280;24211;49.980;19.776;2022-11-20T06:13:45;99049.38;;;-3.33;100.00
38939;BME280;24211;49.980;19.776;2022-11-20T06:16:17;99047.22;;;-3.38;100.00
38939;BME280;24211;49.980;19.776;2022-11-20T06:18:46;99034.59;;;-3.42;100.00
38939;BME280;24211;49.980;19.776;2022-11-20T06:21:17;99045.31;;;-3.45;100.00
38939;BME280;24211;49.980;19.776;2022-11-20T06:23:44;99044.75;;;-3.39;100.00
38939;BME280;24211;49.980;19.776;2022-11-20T06:26:19;99037.59;;;-3.37;100.00
38939;BME280;24211;49.980;19.776;2022-11-20T06:28:46;99048.44;;;-3.32;100.00
38939;BME280;24211;49.980;19.776;2022-11-20T06:31:19;99043.06;;;-3.31;100.00
38939;BME280;24211;49.980;19.776;2022-11-20T06:33:46;99028.78;;;-3.36;100.00
38939;BME280;24211;49.980;19.776;2022-11-20T06:36:16;99023.16;;;-3.41;100.00
38939;BME280;24211;49.980;19.776;2022-11-20T06:38:44;99021.91;;;-3.37;100.00
38939;BME280;24211;49.980;19.776;2022-11-20T06:41:16;99021.91;;;-3.37;100.00
38939;BME280;24211;49.980;19.776;2022-11-20T06:43:43;99020.25;;;-3.38;100.00
38939;BME280;24211;49.980;19.776;2022-11-20T06:46:12;99020.09;;;-3.37;100.00
38939;BME280;24211;49.980;19.776;2022-11-20T06:48:40;99025.31;;;-3.37;100.00
38939;BME280;24211;49.980;19.776;2022-11-20T06:51:08;99023.53;;;-3.36;100.00
38939;BME280;24211;49.980;19.776;2022-11-20T06:53:36;99018.63;;;-3.39;100.00
38939;BME280;24211;49.980;19.776;2022-11-20T06:56:05;99021.38;;;-3.41;100.00
38939;BME280;24211;49.980;19.776;2022-11-20T06:58:35;99023.16;;;-3.41;100.00
38939;BME280;24211;49.980;19.776;2022-11-20T07:01:11;99022.19;;;-3.40;100.00
38939;BME280;24211;49.980;19.776;2022-11-20T07:03:40;99016.97;;;-3.40;100.00
38939;BME280;24211;49.980;19.776;2022-11-20T07:06:08;99023.84;;;-3.39;100.00
38939;BME280;24211;49.980;19.776;2022-11-20T07:08:36;99024.53;;;-3.37;100.00
38939;BME280;24211;49.980;19.776;2022-11-20T07:11:06;99026.84;;;-3.34;100.00
38939;BME280;24211;49.980;19.776;2022-11-20T07:13:34;99033.72;;;-3.33;100.00
38939;BME280;24211;49.980;19.776;2022-11-20T07:16:04;99030.16;;;-3.32;100.00
38939;BME280;24211;49.980;19.776;2022-11-20T07:18:32;99024.91;;;-3.32;100.00
38939;BME280;24211;49.980;19.776;2022-11-20T07:21:02;99022.97;;;-3.30;100.00
38939;BME280;24211;49.980;19.776;2022-11-20T07:23:29;99025.31;;;-3.27;100.00
38939;BME280;24211;49.980;19.776;2022-11-20T07:25:57;99024.03;;;-3.23;100.00
38939;BME280;24211;49.980;19.776;2022-11-20T07:28:24;99025.72;;;-3.22;100.00
38939;BME280;24211;49.980;19.776;2022-11-20T07:30:53;99021.16;;;-3.20;100.00
38939;BME280;24211;49.980;19.776;2022-11-20T07:33:20;99021.00;;;-3.18;100.00
38939;BME280;24211;49.980;19.776;2022-11-20T07:35:47;99030.34;;;-3.16;100.00
38939;BME280;24211;49.980;19.776;2022-11-20T07:38:15;99035.13;;;-3.11;100.00
38939;BME280;24211;49.980;19.776;2022-11-20T07:40:42;99040.75;;;-3.06;100.00
38939;BME280;24211;49.980;19.776;2022-11-20T07:43:09;99045.13;;;-3.07;100.00
38939;BME280;24211;49.980;19.776;2022-11-20T07:45:37;99046.13;;;-3.08;100.00
38939;BME280;24211;49.980;19.776;2022-11-20T07:48:04;99059.88;;;-3.06;100.00
38939;BME280;24211;49.980;19.776;2022-11-20T07:50:31;99047.47;;;-3.04;100.00
38939;BME280;24211;49.980;19.776;2022-11-20T07:53:05;99055.84;;;-3.00;100.00
38939;BME280;24211;49.980;19.776;2022-11-20T07:55:33;99054.88;;;-2.99;100.00
38939;BME280;24211;49.980;19.776;2022-11-20T07:58:00;99051.81;;;-2.95;100.00
38939;BME280;24211;49.980;19.776;2022-11-20T08:00:28;99049.91;;;-2.93;100.00
38939;BME280;24211;49.980;19.776;2022-11-20T08:02:55;99047.41;;;-2.94;100.00
38939;BME280;24211;49.980;19.776;2022-11-20T08:05:23;99047.28;;;-2.93;100.00
38939;BME280;24211;49.980;19.776;2022-11-20T08:07:50;99047.28;;;-2.93;100.00
38939;BME280;24211;49.980;19.776;2022-11-20T08:10:17;99042.34;;;-2.96;100.00
38939;BME280;24211;49.980;19.776;2022-11-20T08:12:50;99045.25;;;-2.99;100.00
38939;BME280;24211;49.980;19.776;2022-11-20T08:15:39;99048.84;;;-3.00;100.00
38939;BME280;24211;49.980;19.776;2022-11-20T08:18:11;99040.16;;;-3.00;100.00
38939;BME280;24211;49.980;19.776;2022-11-20T08:21:05;99044.56;;;-3.01;100.00
38939;BME280;24211;49.980;19.776;2022-11-20T08:23:32;99038.38;;;-3.00;100.00
38939;BME280;24211;49.980;19.776;2022-11-20T08:25:59;99044.84;;;-3.04;100.00
38939;BME280;24211;49.980;19.776;2022-11-20T08:28:26;99040.59;;;-3.05;100.00
38939;BME280;24211;49.980;19.776;2022-11-20T08:30:59;99041.66;;;-2.98;100.00
38939;BME280;24211;49.980;19.776;2022-11-20T08:33:27;99036.66;;;-2.91;100.00
38939;BME280;24211;49.980;19.776;2022-11-20T08:36:00;99031.00;;;-2.87;100.00
38939;BME280;24211;49.980;19.776;2022-11-20T08:38:28;99042.50;;;-2.80;100.00
38939;BME280;24211;49.980;19.776;2022-11-20T08:41:00;99035.03;;;-2.75;100.00
38939;BME280;24211;49.980;19.776;2022-11-20T08:43:47;99035.31;;;-2.68;100.00
38939;BME280;24211;49.980;19.776;2022-11-20T08:46:14;99044.03;;;-2.59;100.00
38939;BME280;24211;49.980;19.776;2022-11-20T08:48:42;99040.16;;;-2.55;100.00
38939;BME280;24211;49.980;19.776;2022-11-20T08:51:11;99040.69;;;-2.52;100.00
38939;BME280;24211;49.980;19.776;2022-11-20T08:53:39;99036.00;;;-2.48;100.00
38939;BME280;24211;49.980;19.776;2022-11-20T08:56:07;99034.03;;;-2.46;100.00
38939;BME280;24211;49.980;19.776;2022-11-20T08:58:34;99040.81;;;-2.36;100.00
38939;BME280;24211;49.980;19.776;2022-11-20T09:01:22;99030.59;;;-2.29;100.00
38939;BME280;24211;49.980;19.776;2022-11-20T09:03:50;99031.63;;;-2.22;100.00
38939;BME280;24211;49.980;19.776;2022-11-20T09:06:18;99026.09;;;-2.19;100.00
38939;BME280;24211;49.980;19.776;2022-11-20T09:08:45;99026.31;;;-2.13;100.00
38939;BME280;24211;49.980;19.776;2022-11-20T09:11:12;99025.84;;;-2.08;100.00
38939;BME280;24211;49.980;19.776;2022-11-20T09:13:39;99028.84;;;-2.03;100.00
38939;BME280;24211;49.980;19.776;2022-11-20T09:16:08;99024.13;;;-2.00;100.00
38939;BME280;24211;49.980;19.776;2022-11-20T09:18:36;99021.06;;;-1.95;100.00
38939;BME280;24211;49.980;19.776;2022-11-20T09:21:12;99016.19;;;-1.90;100.00
38939;BME280;24211;49.980;19.776;2022-11-20T09:23:39;99015.88;;;-1.87;100.00
38939;BME280;24211;49.980;19.776;2022-11-20T09:26:13;99015.56;;;-1.84;100.00
38939;BME280;24211;49.980;19.776;2022-11-20T09:28:40;99019.19;;;-1.77;100.00
38939;BME280;24211;49.980;19.776;2022-11-20T09:31:23;99009.09;;;-1.72;100.00
38939;BME280;24211;49.980;19.776;2022-11-20T09:33:50;99010.44;;;-1.68;100.00
38939;BME280;24211;49.980;19.776;2022-11-20T09:36:18;99007.50;;;-1.65;100.00
38939;BME280;24211;49.980;19.776;2022-11-20T09:38:46;99015.03;;;-1.62;100.00
38939;BME280;24211;49.980;19.776;2022-11-20T09:42:09;99011.16;;;-1.58;100.00
38939;BME280;24211;49.980;19.776;2022-11-20T09:44:55;99015.75;;;-1.52;100.00
38939;BME280;24211;49.980;19.776;2022-11-20T09:48:03;99017.09;;;-1.48;100.00
38939;BME280;24211;49.980;19.776;2022-11-20T09:53:20;99014.00;;;-1.43;100.00
38939;BME280;24211;49.980;19.776;2022-11-20T09:55:51;99021.41;;;-1.39;100.00
38939;BME280;24211;49.980;19.776;2022-11-20T09:58:52;99022.72;;;-1.35;100.00
38939;BME280;24211;49.980;19.776;2022-11-20T10:01:26;99020.44;;;-1.29;100.00
38939;BME280;24211;49.980;19.776;2022-11-20T10:06:45;99027.22;;;-1.19;100.00
38939;BME280;24211;49.980;19.776;2022-11-20T10:09:38;99023.81;;;-1.11;100.00
38939;BME280;24211;49.980;19.776;2022-11-20T10:15:21;99027.44;;;-1.04;100.00
38939;BME280;24211;49.980;19.776;2022-11-20T10:26:35;99004.22;;;-0.91;100.00
38939;BME280;24211;49.980;19.776;2022-11-20T10:29:18;99014.38;;;-0.88;100.00
38939;BME280;24211;49.980;19.776;2022-11-20T10:31:56;99011.44;;;-0.85;100.00
38939;BME280;24211;49.980;19.776;2022-11-20T10:34:35;98997.84;;;-0.81;100.00
38939;BME280;24211;49.980;19.776;2022-11-20T10:37:16;98993.75;;;-0.75;100.00
38939;BME280;24211;49.980;19.776;2022-11-20T10:42:49;98978.53;;;-0.72;100.00
38939;BME280;24211;49.980;19.776;2022-11-20T10:46:05;98995.28;;;-0.64;100.00
38939;BME280;24211;49.980;19.776;2022-11-20T10:48:34;98996.56;;;-0.60;100.00
38939;BME280;24211;49.980;19.776;2022-11-20T10:51:35;98979.69;;;-0.58;100.00
38939;BME280;24211;49.980;19.776;2022-11-20T10:57:47;98983.97;;;-0.49;100.00
38939;BME280;24211;49.980;19.776;2022-11-20T11:00:17;98982.00;;;-0.47;100.00
38939;BME280;24211;49.980;19.776;2022-11-20T11:02:51;98967.88;;;-0.46;100.00
38939;BME280;24211;49.980;19.776;2022-11-20T11:08:39;98961.00;;;-0.39;100.00
38939;BME280;24211;49.980;19.776;2022-11-20T11:11:26;98958.06;;;-0.36;100.00
38939;BME280;24211;49.980;19.776;2022-11-20T11:14:06;98948.84;;;-0.32;100.00
38939;BME280;24211;49.980;19.776;2022-11-20T11:16:34;98945.91;;;-0.29;100.00
38939;BME280;24211;49.980;19.776;2022-11-20T11:19:13;98942.94;;;-0.26;100.00
38939;BME280;24211;49.980;19.776;2022-11-20T11:21:56;98947.22;;;-0.25;100.00
38939;BME280;24211;49.980;19.776;2022-11-20T11:24:25;98940.97;;;-0.24;100.00
38939;BME280;24211;49.980;19.776;2022-11-20T11:27:14;98937.69;;;-0.18;100.00
38939;BME280;24211;49.980;19.776;2022-11-20T11:29:46;98931.13;;;-0.14;100.00
38939;BME280;24211;49.980;19.776;2022-11-20T11:32:17;98931.78;;;-0.12;100.00
38939;BME280;24211;49.980;19.776;2022-11-20T11:34:45;98940.47;;;-0.11;100.00
38939;BME280;24211;49.980;19.776;2022-11-20T11:37:20;98933.41;;;-0.11;100.00
38939;BME280;24211;49.980;19.776;2022-11-20T11:39:51;98929.47;;;-0.07;100.00
38939;BME280;24211;49.980;19.776;2022-11-20T11:42:44;98927.34;;;-0.03;100.00
38939;BME280;24211;49.980;19.776;2022-11-20T11:45:15;98919.94;;;0.00;100.00
38939;BME280;24211;49.980;19.776;2022-11-20T11:47:47;98910.06;;;0.03;100.00
38939;BME280;24211;49.980;19.776;2022-11-20T11:50:23;98906.47;;;0.04;100.00
38939;BME280;24211;49.980;19.776;2022-11-20T11:58:51;98898.56;;;0.12;100.00
38939;BME280;24211;49.980;19.776;2022-11-20T12:01:33;98893.97;;;0.14;100.00
38939;BME280;24211;49.980;19.776;2022-11-20T12:04:43;98896.59;;;0.14;100.00
38939;BME280;24211;49.980;19.776;2022-11-20T12:07:32;98898.72;;;0.18;100.00
38939;BME280;24211;49.980;19.776;2022-11-20T12:10:41;98889.03;;;0.19;100.00
38939;BME280;24211;49.980;19.776;2022-11-20T12:16:03;98893.59;;;0.25;100.00
38939;BME280;24211;49.980;19.776;2022-11-20T12:18:31;98892.63;;;0.26;100.00
38939;BME280;24211;49.980;19.776;2022-11-20T12:39:49;98893.22;;;0.44;100.00
38939;BME280;24211;49.980;19.776;2022-11-20T12:42:41;98896.47;;;0.46;100.00
38939;BME280;24211;49.980;19.776;2022-11-20T12:46:08;98891.88;;;0.48;100.00
38939;BME280;24211;49.980;19.776;2022-11-20T12:49:15;98889.88;;;0.50;100.00
38939;BME280;24211;49.980;19.776;2022-11-20T12:52:20;98885.75;;;0.55;100.00
38939;BME280;24211;49.980;19.776;2022-11-20T12:55:16;98877.69;;;0.57;100.00
38939;BME280;24211;49.980;19.776;2022-11-20T12:58:20;98879.69;;;0.55;100.00
38939;BME280;24211;49.980;19.776;2022-11-20T13:01:02;98859.47;;;0.55;100.00
38939;BME280;24211;49.980;19.776;2022-11-20T13:03:47;98863.38;;;0.59;100.00
38939;BME280;24211;49.980;19.776;2022-11-20T13:06:19;98854.31;;;0.62;100.00
38939;BME280;24211;49.980;19.776;2022-11-20T13:08:55;98857.25;;;0.67;100.00
38939;BME280;24211;49.980;19.776;2022-11-20T13:11:45;98848.72;;;0.65;100.00
38939;BME280;24211;49.980;19.776;2022-11-20T13:14:37;98849.72;;;0.64;100.00
38939;BME280;24211;49.980;19.776;2022-11-20T13:17:28;98852.00;;;0.67;100.00
38939;BME280;24211;49.980;19.776;2022-11-20T13:19:59;98840.66;;;0.66;100.00
38939;BME280;24211;49.980;19.776;2022-11-20T13:22:29;98836.56;;;0.64;100.00
38939;BME280;24211;49.980;19.776;2022-11-20T13:24:56;98832.94;;;0.65;100.00
38939;BME280;24211;49.980;19.776;2022-11-20T13:27:24;98818.16;;;0.64;100.00
38939;BME280;24211;49.980;19.776;2022-11-20T13:30:15;98825.69;;;0.67;100.00
38939;BME280;24211;49.980;19.776;2022-11-20T13:32:55;98823.38;;;0.72;100.00
38939;BME280;24211;49.980;19.776;2022-11-20T13:35:35;98829.47;;;0.73;100.00
38939;BME280;24211;49.980;19.776;2022-11-20T13:38:10;98824.38;;;0.71;100.00
38939;BME280;24211;49.980;19.776;2022-11-20T13:40:55;98816.50;;;0.71;100.00
38939;BME280;24211;49.980;19.776;2022-11-20T13:43:39;98818.94;;;0.73;100.00
38939;BME280;24211;49.980;19.776;2022-11-20T13:46:09;98811.22;;;0.71;100.00
38939;BME280;24211;49.980;19.776;2022-11-20T13:48:43;98812.03;;;0.72;100.00
38939;BME280;24211;49.980;19.776;2022-11-20T13:51:41;98817.28;;;0.72;100.00
38939;BME280;24211;49.980;19.776;2022-11-20T13:54:57;98820.59;;;0.74;100.00
38939;BME280;24211;49.980;19.776;2022-11-20T13:57:52;98829.75;;;0.78;100.00
38939;BME280;24211;49.980;19.776;2022-11-20T14:00:24;98836.00;;;0.77;100.00
38939;BME280;24211;49.980;19.776;2022-11-20T14:03:10;98829.94;;;0.76;100.00
38939;BME280;24211;49.980;19.776;2022-11-20T14:05:57;98826.63;;;0.74;100.00
38939;BME280;24211;49.980;19.776;2022-11-20T14:08:37;98815.78;;;0.77;100.00
38939;BME280;24211;49.980;19.776;2022-11-20T14:11:14;98803.63;;;0.76;100.00
38939;BME280;24211;49.980;19.776;2022-11-20T14:14:13;98811.34;;;0.78;100.00